createdAt,value
2019-03-20T00:00:28.575Z,51.30
2019-03-20T00:03:05.867Z,53.20
2019-03-20T00:05:35.881Z,47.87
2019-03-20T00:08:06.132Z,47.43
2019-03-20T00:10:36.515Z,47.87
2019-03-20T00:13:06.636Z,50.20
2019-03-20T00:15:36.658Z,50.33
2019-03-20T00:18:06.465Z,48.40
2019-03-20T00:20:37.318Z,48.87
2019-03-20T00:23:07.212Z,50.50
2019-03-20T00:25:37.558Z,49.30
2019-03-20T00:28:07.767Z,46.23
2019-03-20T00:30:38.306Z,46.63
2019-03-20T00:33:08.836Z,44.63
2019-03-20T00:35:39.040Z,45.77
2019-03-20T00:38:09.462Z,44.77
2019-03-20T00:40:39.913Z,44.53
2019-03-20T00:43:10.337Z,44.23
2019-03-20T00:45:40.535Z,44.57
2019-03-20T00:48:11.282Z,44.53
2019-03-20T00:50:41.927Z,43.30
2019-03-20T00:53:12.429Z,39.83
2019-03-20T00:55:43.887Z,43.93
2019-03-20T00:58:14.307Z,44.10
2019-03-20T01:00:44.421Z,43.07
2019-03-20T01:03:15.058Z,44.73
2019-03-20T01:05:47.534Z,46.80
2019-03-20T01:08:19.291Z,46.37
2019-03-20T01:10:49.921Z,45.77
2019-03-20T01:13:20.548Z,43.60
2019-03-20T01:15:51.487Z,48.33
2019-03-20T01:18:22.576Z,45.93
2019-03-20T01:20:52.973Z,47.07
2019-03-20T01:23:23.485Z,46.13
2019-03-20T01:25:53.815Z,44.93
2019-03-20T01:28:24.131Z,44.20
2019-03-20T02:15:39.651Z,40.87
2019-03-20T02:18:10.533Z,41.03
2019-03-20T02:20:41.470Z,41.63
2019-03-20T02:23:12.515Z,39.40
2019-03-20T02:26:19.133Z,42.30
2019-03-20T02:31:41.164Z,39.80
2019-03-20T02:34:15.986Z,42.17
2019-03-20T02:53:06.067Z,38.90
2019-03-20T02:55:53.157Z,38.03
2019-03-20T02:58:39.387Z,37.73
2019-03-20T03:01:26.505Z,37.53
2019-03-20T03:07:46.523Z,38.50
2019-03-20T03:10:49.480Z,40.17
2019-03-20T03:13:38.545Z,40.07
2019-03-20T03:16:23.025Z,42.77
2019-03-20T03:19:11.165Z,41.50
2019-03-20T03:22:20.487Z,42.63
2019-03-20T03:25:03.509Z,42.80
2019-03-20T03:27:48.270Z,39.03
2019-03-20T03:30:24.649Z,35.80
2019-03-20T03:33:10.148Z,42.93
2019-03-20T03:36:21.956Z,43.60
2019-03-20T03:42:50.352Z,44.30
2019-03-20T03:45:50.154Z,47.87
2019-03-20T03:52:38.669Z,48.10
2019-03-20T04:02:15.946Z,35.77
2019-03-20T04:05:01.533Z,37.67
2019-03-20T04:07:42.919Z,39.20
2019-03-20T04:10:51.435Z,38.70
2019-03-20T04:13:32.492Z,37.23
2019-03-20T04:16:07.326Z,37.40
2019-03-20T04:19:02.370Z,36.47
2019-03-20T04:22:05.522Z,39.23
2019-03-20T04:24:42.435Z,37.40
2019-03-20T04:27:28.710Z,36.00
2019-03-20T04:30:13.048Z,39.00
2019-03-20T04:33:20.760Z,38.87
2019-03-20T04:36:00.705Z,35.97
2019-03-20T04:38:57.538Z,37.87
2019-03-20T04:41:43.146Z,35.67
2019-03-20T04:44:22.563Z,35.33
2019-03-20T04:47:04.066Z,35.20
2019-03-20T04:49:44.126Z,35.80
2019-03-20T04:52:42.386Z,34.23
2019-03-20T04:55:32.988Z,36.30
2019-03-20T04:58:17.529Z,37.10
2019-03-20T05:01:11.157Z,36.00
2019-03-20T05:04:19.934Z,35.30
2019-03-20T05:06:59.325Z,35.80
2019-03-20T05:09:33.800Z,35.87
2019-03-20T05:12:15.378Z,38.27
2019-03-20T05:14:55.938Z,34.20
2019-03-20T05:17:52.388Z,35.83
2019-03-20T05:20:39.073Z,34.40
2019-03-20T05:23:17.310Z,35.50
2019-03-20T05:25:53.257Z,35.83
2019-03-20T05:28:55.960Z,35.07
2019-03-20T05:31:37.416Z,38.47
2019-03-20T05:34:10.516Z,38.27
2019-03-20T05:36:56.096Z,38.00
2019-03-20T05:39:32.138Z,39.07
2019-03-20T05:42:24.883Z,38.23
2019-03-20T05:49:06.628Z,36.47
2019-03-20T05:55:23.967Z,37.10
2019-03-20T06:29:10.065Z,44.53
2019-03-20T06:31:40.470Z,44.63
2019-03-20T06:34:20.936Z,42.37
2019-03-20T06:36:52.472Z,39.97
2019-03-20T06:39:23.430Z,37.50
2019-03-20T06:41:53.544Z,42.97
2019-03-20T06:44:23.447Z,40.83
2019-03-20T06:46:53.785Z,38.03
2019-03-20T06:49:23.924Z,40.43
2019-03-20T06:51:56.134Z,34.70
2019-03-20T06:54:25.874Z,34.20
2019-03-20T06:56:56.198Z,34.97
2019-03-20T06:59:45.157Z,32.10
2019-03-20T07:02:14.863Z,33.40
2019-03-20T07:05:03.921Z,29.30
2019-03-20T07:07:44.063Z,28.77
2019-03-20T07:10:25.466Z,29.17
2019-03-20T07:12:55.495Z,25.47
2019-03-20T07:15:26.135Z,26.83
2019-03-20T07:17:56.334Z,27.53
2019-03-20T07:20:26.355Z,27.80
2019-03-20T07:22:56.695Z,27.90
2019-03-20T07:25:26.485Z,27.53
2019-03-20T07:27:56.398Z,29.43
2019-03-20T07:30:26.834Z,26.73
2019-03-20T07:32:56.856Z,25.43
2019-03-20T07:35:27.285Z,24.30
2019-03-20T07:37:58.135Z,26.47
2019-03-20T07:40:28.115Z,25.93
2019-03-20T07:43:08.131Z,25.77
2019-03-20T07:45:30.314Z,21.63
2019-03-20T07:48:00.855Z,20.80
2019-03-20T07:50:30.845Z,21.20
2019-03-20T07:53:01.375Z,21.70
2019-03-20T07:55:31.804Z,21.53
2019-03-20T07:58:02.555Z,23.00
2019-03-20T08:00:35.135Z,21.17
2019-03-20T08:03:05.755Z,19.77
2019-03-20T08:05:35.774Z,20.10
2019-03-20T08:08:07.445Z,20.53
2019-03-20T08:10:38.065Z,20.10
2019-03-20T08:13:08.165Z,18.27
2019-03-20T08:15:38.085Z,18.83
2019-03-20T08:18:08.095Z,18.43
2019-03-20T08:20:38.534Z,17.80
2019-03-20T08:23:08.537Z,16.27
2019-03-20T08:25:39.059Z,16.50
2019-03-20T08:28:09.175Z,19.10
2019-03-20T08:30:39.505Z,16.93
2019-03-20T08:33:09.837Z,16.33
2019-03-20T08:35:40.255Z,18.23
2019-03-20T08:38:18.159Z,16.50
2019-03-20T08:40:46.554Z,18.20
2019-03-20T08:43:17.168Z,14.43
2019-03-20T08:45:48.434Z,13.90
2019-03-20T08:48:19.055Z,15.07
2019-03-20T08:50:52.747Z,14.83
2019-03-20T08:53:23.486Z,11.83
2019-03-20T08:55:54.935Z,12.83
2019-03-20T08:58:29.554Z,12.30
2019-03-20T09:01:00.514Z,11.07
2019-03-20T09:03:30.815Z,10.33
2019-03-20T09:06:00.835Z,9.90
2019-03-20T09:08:30.747Z,8.30
2019-03-20T09:11:00.974Z,9.47
2019-03-20T09:13:31.134Z,9.07
2019-03-20T09:16:01.515Z,9.73
2019-03-20T09:18:31.835Z,9.93
2019-03-20T09:21:02.464Z,6.87
2019-03-20T09:23:32.915Z,7.13
2019-03-20T09:26:04.875Z,6.00
2019-03-20T09:28:35.585Z,6.43
2019-03-20T09:31:07.363Z,7.80
2019-03-20T09:33:38.915Z,6.07
2019-03-20T09:36:13.416Z,5.67
2019-03-20T09:38:44.035Z,6.40
2019-03-20T09:41:15.910Z,5.63
2019-03-20T09:43:46.145Z,6.47
2019-03-20T09:47:05.915Z,6.27
2019-03-20T09:49:36.235Z,7.60
2019-03-20T09:52:06.866Z,7.93
2019-03-20T09:54:36.997Z,7.93
2019-03-20T09:57:06.795Z,7.97
2019-03-20T09:59:36.822Z,8.23
2019-03-20T10:02:07.135Z,8.40
2019-03-20T10:04:37.895Z,8.83
2019-03-20T10:07:08.097Z,8.37
2019-03-20T10:09:38.315Z,9.13
2019-03-20T10:12:12.735Z,10.03
2019-03-20T10:14:52.164Z,10.07
2019-03-20T10:17:23.725Z,8.83
2019-03-20T10:19:53.743Z,11.40
2019-03-20T10:22:23.752Z,6.10
2019-03-20T10:24:55.925Z,4.80
2019-03-20T10:27:25.735Z,3.20
2019-03-20T10:29:55.954Z,4.13
2019-03-20T10:32:26.284Z,3.60
2019-03-20T10:34:56.322Z,4.13
2019-03-20T10:37:29.817Z,3.87
2019-03-20T10:40:01.857Z,3.57
2019-03-20T10:42:32.316Z,3.67
2019-03-20T10:45:02.714Z,5.20
2019-03-20T10:47:32.825Z,4.90
2019-03-20T10:50:03.988Z,3.43
2019-03-20T10:52:34.419Z,3.90
2019-03-20T11:01:48.494Z,3.43
2019-03-20T11:04:21.475Z,3.93
2019-03-20T11:06:54.054Z,4.03
2019-03-20T11:09:27.681Z,3.70
2019-03-20T11:11:59.538Z,3.63
2019-03-20T11:14:57.081Z,3.57
2019-03-20T11:17:38.371Z,3.03
2019-03-20T11:26:32.941Z,2.60
2019-03-20T11:29:03.512Z,2.97
2019-03-20T11:31:33.738Z,3.10
2019-03-20T11:34:04.075Z,2.17
2019-03-20T11:36:41.553Z,2.67
2019-03-20T11:39:44.435Z,2.33
2019-03-20T11:42:19.782Z,2.53
2019-03-20T11:44:50.005Z,2.10
2019-03-20T11:47:43.370Z,2.03
2019-03-20T11:50:17.995Z,2.07
2019-03-20T11:52:48.614Z,2.40
2019-03-20T11:55:18.845Z,1.90
2019-03-20T11:57:48.755Z,2.40
2019-03-20T12:00:19.519Z,2.37
2019-03-20T12:02:53.397Z,2.30
2019-03-20T12:05:22.517Z,2.43
2019-03-20T12:07:52.807Z,2.43
2019-03-20T12:10:23.779Z,2.70
2019-03-20T12:12:54.582Z,2.33
2019-03-20T12:15:25.325Z,2.27
2019-03-20T12:17:55.846Z,2.20
2019-03-20T12:20:25.975Z,2.40
2019-03-20T12:22:56.095Z,2.40
2019-03-20T12:25:28.144Z,2.83
2019-03-20T12:27:58.883Z,3.30
2019-03-20T12:30:29.107Z,2.53
2019-03-20T12:32:59.735Z,2.20
2019-03-20T12:35:30.675Z,2.40
2019-03-20T12:38:00.902Z,2.93
2019-03-20T12:40:31.734Z,3.27
2019-03-20T12:43:02.189Z,2.47
2019-03-20T12:45:32.694Z,2.93
2019-03-20T12:48:02.807Z,2.50
2019-03-20T12:50:32.835Z,3.07
2019-03-20T12:53:02.738Z,2.40
2019-03-20T12:55:32.857Z,2.80
2019-03-20T12:58:03.484Z,2.03
2019-03-20T13:00:34.025Z,2.77
2019-03-20T13:03:04.438Z,2.23
2019-03-20T13:05:34.765Z,3.67
2019-03-20T13:08:06.126Z,2.93
2019-03-20T13:10:39.915Z,2.90
2019-03-20T13:13:10.303Z,3.13
2019-03-20T13:15:40.874Z,2.57
2019-03-20T13:18:11.086Z,2.47
2019-03-20T13:20:41.724Z,2.20
2019-03-20T13:23:13.165Z,3.00
2019-03-20T13:25:47.135Z,2.83
2019-03-20T13:28:17.520Z,3.17
2019-03-20T13:30:50.196Z,4.03
2019-03-20T13:33:25.551Z,3.33
2019-03-20T13:35:52.775Z,3.70
2019-03-20T13:38:22.814Z,4.07
2019-03-20T13:40:53.135Z,3.63
2019-03-20T13:43:29.484Z,2.90
2019-03-20T13:45:59.705Z,3.27
2019-03-20T13:48:29.835Z,3.00
2019-03-20T13:51:00.175Z,5.30
2019-03-20T13:53:30.167Z,3.87
2019-03-20T13:56:01.305Z,2.90
2019-03-20T13:58:32.135Z,3.43
2019-03-20T14:01:02.365Z,2.97
2019-03-20T14:03:32.584Z,2.93
2019-03-20T14:06:03.117Z,2.83
2019-03-20T14:08:33.855Z,3.13
2019-03-20T14:11:04.485Z,3.20
2019-03-20T14:13:35.105Z,3.60
2019-03-20T14:16:05.945Z,2.77
2019-03-20T14:18:37.805Z,4.20
2019-03-20T14:21:11.634Z,2.90
2019-03-20T14:24:04.895Z,3.13
2019-03-20T14:26:40.014Z,3.23
2019-03-20T14:29:23.252Z,3.20
2019-03-20T14:32:19.495Z,2.73
2019-03-20T14:34:54.135Z,3.07
2019-03-20T14:38:01.135Z,4.20
2019-03-20T14:40:41.047Z,3.20
2019-03-20T14:43:42.508Z,3.73
2019-03-20T14:55:46.146Z,3.13
2019-03-20T15:01:29.806Z,4.40
2019-03-20T15:04:00.833Z,3.03
2019-03-20T15:12:39.897Z,2.57
2019-03-20T15:15:29.786Z,3.40
2019-03-20T15:18:00.515Z,3.93
2019-03-20T15:20:30.753Z,3.37
2019-03-20T15:23:09.868Z,3.23
2019-03-20T15:26:08.863Z,4.50
2019-03-20T15:28:47.150Z,3.77
2019-03-20T15:31:45.071Z,3.43
2019-03-20T15:40:23.207Z,5.63
2019-03-20T15:42:56.135Z,4.80
2019-03-20T15:45:31.524Z,4.40
2019-03-20T15:48:05.846Z,4.53
2019-03-20T15:50:39.857Z,3.47
2019-03-20T15:53:14.485Z,2.93
2019-03-20T15:55:51.474Z,4.47
2019-03-20T15:58:31.608Z,3.93
2019-03-20T16:01:24.263Z,3.80
2019-03-20T16:04:02.262Z,4.50
2019-03-20T16:06:36.984Z,4.83
2019-03-20T16:09:10.485Z,4.20
2019-03-20T16:11:52.574Z,5.23
2019-03-20T16:14:42.193Z,5.60
2019-03-20T16:17:31.325Z,6.00
2019-03-20T16:20:02.875Z,4.70
2019-03-20T16:23:03.833Z,5.30
2019-03-20T16:25:48.277Z,5.87
2019-03-20T16:31:52.927Z,6.07
2019-03-20T16:34:26.118Z,6.17
2019-03-20T16:37:00.878Z,6.60
2019-03-20T16:39:33.015Z,5.80
2019-03-20T16:42:04.253Z,6.37
2019-03-20T16:44:37.967Z,6.43
2019-03-20T16:47:13.412Z,12.70
2019-03-20T16:49:48.448Z,18.67
2019-03-20T16:52:20.381Z,14.70
2019-03-20T17:09:55.029Z,15.00
2019-03-20T17:12:25.877Z,14.77
2019-03-20T17:14:57.928Z,15.07
2019-03-20T17:17:36.331Z,14.00
2019-03-20T17:20:08.078Z,16.33
2019-03-20T17:22:42.111Z,16.57
2019-03-20T17:25:13.945Z,22.40
2019-03-20T17:27:45.935Z,24.27
2019-03-20T17:51:12.495Z,13.43
2019-03-20T17:53:44.563Z,13.80
2019-03-20T17:56:15.601Z,13.90
2019-03-20T17:58:50.120Z,14.00
2019-03-20T18:01:22.108Z,14.10
2019-03-20T18:03:54.440Z,11.57
2019-03-20T18:06:28.166Z,13.73
2019-03-20T18:09:00.740Z,13.70
2019-03-20T18:11:35.343Z,15.27
2019-03-20T18:14:07.099Z,13.27
2019-03-20T18:16:41.529Z,16.97
2019-03-20T18:19:15.535Z,15.30
2019-03-20T18:21:50.155Z,15.13
2019-03-20T18:24:21.199Z,17.50
2019-03-20T18:26:57.768Z,16.13
2019-03-20T18:29:53.914Z,17.47
2019-03-20T18:32:27.009Z,20.53
2019-03-20T18:34:59.979Z,22.27
2019-03-20T18:37:36.859Z,26.80
2019-03-20T18:40:12.516Z,36.57
2019-03-20T18:42:50.421Z,47.63
2019-03-20T18:45:25.765Z,55.50
2019-03-20T18:48:05.998Z,53.13
2019-03-20T18:50:50.860Z,39.20
2019-03-20T18:53:24.044Z,39.03
2019-03-20T18:55:57.749Z,39.30
2019-03-20T18:58:35.561Z,41.13
2019-03-20T19:01:09.940Z,50.90
2019-03-20T19:03:42.953Z,44.87
2019-03-20T19:06:35.611Z,45.83
2019-03-20T19:09:15.282Z,41.53
2019-03-20T19:11:51.733Z,35.80
2019-03-20T19:14:25.538Z,38.43
2019-03-20T19:17:05.072Z,29.93
2019-03-20T19:19:38.562Z,29.57
2019-03-20T19:22:19.327Z,30.07
2019-03-20T19:24:52.042Z,27.77
2019-03-20T19:27:26.156Z,29.47
2019-03-20T19:30:06.906Z,29.93
2019-03-20T19:32:39.676Z,25.07
2019-03-20T19:35:16.660Z,23.17
2019-03-20T19:37:50.468Z,21.87
2019-03-20T19:40:31.636Z,20.17
2019-03-20T19:43:04.123Z,25.77
2019-03-20T19:45:40.674Z,31.37
2019-03-20T19:48:14.902Z,28.73
2019-03-20T19:50:47.999Z,27.77
2019-03-20T19:53:18.829Z,28.87
2019-03-20T19:55:50.696Z,28.07
2019-03-20T19:58:23.479Z,30.33
2019-03-20T20:00:55.745Z,29.30
2019-03-20T20:03:29.844Z,29.83
2019-03-20T20:06:03.146Z,30.10
2019-03-20T20:08:34.707Z,30.33
2019-03-20T20:11:10.028Z,32.10
2019-03-20T20:13:45.700Z,29.57
2019-03-20T20:16:17.527Z,28.07
2019-03-20T20:18:48.473Z,28.77
2019-03-20T20:21:19.738Z,27.00
2019-03-20T20:23:53.949Z,28.10
2019-03-20T20:26:24.909Z,25.63
2019-03-20T20:28:56.647Z,24.93
2019-03-20T20:31:28.483Z,26.03
2019-03-20T20:34:01.874Z,26.93
2019-03-20T20:36:40.823Z,27.93
2019-03-20T20:39:14.627Z,25.03
2019-03-20T20:41:45.867Z,27.37
2019-03-20T20:44:17.938Z,25.40
2019-03-20T20:46:49.579Z,27.00
2019-03-20T20:49:21.133Z,26.30
2019-03-20T20:51:51.651Z,25.87
2019-03-20T20:54:23.323Z,25.20
2019-03-20T20:56:59.169Z,25.77
2019-03-20T20:59:35.147Z,25.47
2019-03-20T21:02:07.126Z,23.87
2019-03-20T21:04:41.819Z,23.60
2019-03-20T21:07:12.545Z,22.70
2019-03-20T21:09:49.321Z,23.77
2019-03-20T21:12:20.355Z,23.53
2019-03-20T21:14:56.421Z,23.13
2019-03-20T21:17:33.501Z,24.10
2019-03-20T21:20:04.144Z,23.93
2019-03-20T21:23:00.787Z,23.07
2019-03-20T21:25:37.565Z,25.07
2019-03-20T21:28:27.530Z,22.57
2019-03-20T21:31:06.782Z,26.20
2019-03-20T21:33:56.153Z,30.60
2019-03-20T21:36:43.876Z,28.87
2019-03-20T21:39:16.645Z,26.90
2019-03-20T21:42:06.126Z,29.87
2019-03-20T21:44:51.826Z,35.60
2019-03-20T21:47:44.958Z,37.47
2019-03-20T21:50:37.507Z,44.50
2019-03-20T21:53:12.877Z,40.63
2019-03-20T21:56:02.833Z,36.63
2019-03-20T21:58:52.000Z,36.70
2019-03-20T22:01:35.136Z,37.27
2019-03-20T22:04:06.477Z,36.53
2019-03-20T22:06:55.523Z,36.60
2019-03-20T22:09:48.296Z,37.40
2019-03-20T22:12:21.778Z,34.90
2019-03-20T22:14:54.666Z,35.40
2019-03-20T22:17:50.950Z,34.83
2019-03-20T22:20:37.099Z,34.50
2019-03-20T22:23:26.693Z,34.83
2019-03-20T22:26:21.363Z,35.47
2019-03-20T22:29:08.777Z,35.60
2019-03-20T22:31:41.243Z,33.57
2019-03-20T22:34:30.928Z,33.47
2019-03-20T22:37:03.026Z,32.73
2019-03-20T22:39:54.546Z,35.57
2019-03-20T22:42:31.910Z,37.13
2019-03-20T22:45:14.838Z,37.27
2019-03-20T22:48:04.405Z,36.77
2019-03-20T22:50:46.504Z,35.20
2019-03-20T22:53:23.504Z,33.87
2019-03-20T22:56:01.397Z,33.87
2019-03-20T22:58:50.034Z,33.33
2019-03-20T23:01:23.528Z,33.17
2019-03-20T23:03:57.129Z,32.40
2019-03-20T23:06:27.767Z,34.50
2019-03-20T23:08:58.108Z,35.20
2019-03-20T23:11:29.359Z,35.00
2019-03-20T23:14:15.344Z,31.43
2019-03-20T23:16:48.827Z,33.20
2019-03-20T23:19:42.187Z,32.87
2019-03-20T23:22:13.950Z,32.17
2019-03-20T23:25:05.063Z,34.53
2019-03-20T23:27:41.637Z,36.10
2019-03-20T23:33:06.557Z,34.43
2019-03-20T23:35:53.452Z,35.80
2019-03-20T23:38:36.396Z,36.67
2019-03-20T23:41:33.546Z,34.93
2019-03-20T23:44:16.244Z,30.73
2019-03-20T23:47:16.885Z,34.17
2019-03-20T23:55:47.054Z,36.33
